Time,TemperatureF,DewpointF,PressureIn,WindDirection,WindDirectionDegrees,WindSpeedMPH,WindSpeedGustMPH,Humidity,HourlyPrecipIn,Conditions,Clouds,dailyrainin,SoftwareType,DateUTC
2013-02-15 00:00:00,36.3,28.5,29.84,WNW,292,0.0,0.0,73,0.00,CLR,CLR,0.00,WeatherDisplay:10.37,2013-02-15 05:00:00,
2013-02-15 00:01:00,36.3,28.5,29.84,WNW,292,0.0,0.0,73,0.00,CLR,CLR,0.00,WeatherDisplay:10.37,2013-02-15 05:01:00,
2013-02-15 00:03:00,36.3,28.5,29.84,WNW,292,0.0,0.0,73,0.00,CLR,CLR,0.00,WeatherDisplay:10.37,2013-02-15 05:03:00,
2013-02-15 00:08:00,36.3,28.5,29.84,NW,315,0.0,0.0,73,0.00,CLR,CLR,0.00,WeatherDisplay:10.37,2013-02-15 05:08:00,
2013-02-15 00:13:00,36.1,28.3,29.83,WNW,292,0.0,0.0,73,0.00,CLR,CLR,0.00,WeatherDisplay:10.37,2013-02-15 05:13:00,
2013-02-15 00:19:00,36.1,28.3,29.84,West,270,0.0,0.0,73,0.00,CLR,CLR,0.00,WeatherDisplay:10.37,2013-02-15 05:19:00,
2013-02-15 00:24:00,36.3,28.5,29.84,West,270,0.0,0.0,73,0.00,CLR,CLR,0.00,WeatherDisplay:10.37,2013-02-15 05:24:00,
2013-02-15 00:29:00,36.7,28.8,29.84,WSW,248,0.0,0.0,73,0.00,CLR,CLR,0.00,WeatherDisplay:10.37,2013-02-15 05:29:00,
2013-02-15 00:34:00,37.0,28.8,29.84,WSW,248,0.0,0.0,72,0.00,CLR,CLR,0.00,WeatherDisplay:10.37,2013-02-15 05:34:00,
2013-02-15 00:39:00,36.7,28.5,29.84,WSW,248,0.0,0.0,72,0.00,CLR,CLR,0.00,WeatherDisplay:10.37,2013-02-15 05:39:00,
2013-02-15 00:44:00,36.3,28.5,29.84,South,180,0.0,0.0,73,0.00,CLR,CLR,0.00,WeatherDisplay:10.37,2013-02-15 05:44:00,
2013-02-15 00:49:00,35.8,28.3,29.84,SE,135,0.0,0.0,74,0.00,CLR,CLR,0.00,WeatherDisplay:10.37,2013-02-15 05:49:00,
2013-02-15 00:54:00,34.9,27.8,29.84,South,180,0.0,0.0,75,0.00,CLR,CLR,0.00,WeatherDisplay:10.37,2013-02-15 05:54:00,
2013-02-15 00:59:00,34.9,28.4,29.84,SSE,158,0.0,0.0,77,0.00,CLR,CLR,0.00,WeatherDisplay:10.37,2013-02-15 05:59:00,
2013-02-15 01:04:00,34.7,27.9,29.85,SW,225,0.0,0.0,76,0.00,CLR,CLR,0.00,WeatherDisplay:10.37,2013-02-15 06:04:00,
2013-02-15 01:09:00,33.8,27.0,29.85,WSW,248,4.6,4.6,76,0.00,CLR,CLR,0.00,WeatherDisplay:10.37,2013-02-15 06:09:00,
2013-02-15 01:15:00,33.4,26.7,29.85,WSW,248,3.5,3.5,76,0.00,CLR,CLR,0.00,WeatherDisplay:10.37,2013-02-15 06:15:00,
2013-02-15 01:20:00,33.4,27.0,29.85,West,270,2.6,2.6,77,0.00,CLR,CLR,0.00,WeatherDisplay:10.37,2013-02-15 06:20:00,
2013-02-15 01:25:00,33.1,26.7,29.86,West,270,0.0,0.0,77,0.00,CLR,CLR,0.00,WeatherDisplay:10.37,2013-02-15 06:25:00,
2013-02-15 01:30:00,32.9,26.8,29.86,WSW,248,0.0,0.0,78,0.00,CLR,CLR,0.00,WeatherDisplay:10.37,2013-02-15 06:30:00,
2013-02-15 01:35:00,32.9,26.8,29.86,West,270,2.9,3.5,78,0.00,CLR,CLR,0.00,WeatherDisplay:10.37,2013-02-15 06:35:00,
2013-02-15 01:41:00,33.1,26.7,29.86,West,270,0.0,0.0,77,0.00,CLR,CLR,0.00,WeatherDisplay:10.37,2013-02-15 06:41:00,
2013-02-15 01:46:00,33.3,27.1,29.86,WNW,292,0.0,0.0,78,0.00,CLR,CLR,0.00,WeatherDisplay:10.37,2013-02-15 06:46:00,
2013-02-15 01:51:00,33.1,27.0,29.86,West,270,0.0,0.0,78,0.00,CLR,CLR,0.00,WeatherDisplay:10.37,2013-02-15 06:51:00,
2013-02-15 01:56:00,32.9,26.8,29.86,West,270,0.0,0.0,78,0.00,CLR,CLR,0.00,WeatherDisplay:10.37,2013-02-15 06:56:00,
2013-02-15 02:01:00,33.1,27.0,29.86,West,270,0.0,0.0,78,0.00,CLR,CLR,0.00,WeatherDisplay:10.37,2013-02-15 07:01:00,
2013-02-15 02:06:00,33.1,27.0,29.86,West,270,2.4,2.4,78,0.00,CLR,CLR,0.00,WeatherDisplay:10.37,2013-02-15 07:06:00,
2013-02-15 02:11:00,33.4,27.3,29.86,West,270,0.0,0.0,78,0.00,CLR,CLR,0.00,WeatherDisplay:10.37,2013-02-15 07:11:00,
2013-02-15 02:16:00,33.4,27.3,29.85,West,270,0.0,0.0,78,0.00,CLR,CLR,0.00,WeatherDisplay:10.37,2013-02-15 07:16:00,
2013-02-15 02:22:00,33.6,27.5,29.85,NNW,338,0.0,0.0,78,0.00,CLR,CLR,0.00,WeatherDisplay:10.37,2013-02-15 07:22:00,
2013-02-15 02:27:00,33.4,27.3,29.85,WNW,292,0.0,0.0,78,0.00,CLR,CLR,0.00,WeatherDisplay:10.37,2013-02-15 07:27:00,
2013-02-15 02:32:00,33.1,27.0,29.85,NW,315,0.0,0.0,78,0.00,CLR,CLR,0.00,WeatherDisplay:10.37,2013-02-15 07:32:00,
2013-02-15 02:37:00,33.1,27.0,29.84,NW,315,0.0,0.0,78,0.00,CLR,CLR,0.00,WeatherDisplay:10.37,2013-02-15 07:37:00,
2013-02-15 02:42:00,33.1,27.0,29.84,NW,315,0.0,0.0,78,0.00,CLR,CLR,0.00,WeatherDisplay:10.37,2013-02-15 07:42:00,
2013-02-15 02:47:00,33.4,27.3,29.84,NNW,338,0.0,0.0,78,0.00,CLR,CLR,0.00,WeatherDisplay:10.37,2013-02-15 07:47:00,
2013-02-15 02:52:00,33.4,27.3,29.85,NW,315,0.0,0.0,78,0.00,CLR,CLR,0.00,WeatherDisplay:10.37,2013-02-15 07:52:00,
2013-02-15 02:57:00,33.4,27.3,29.85,NW,315,0.0,0.0,78,0.00,CLR,CLR,0.00,WeatherDisplay:10.37,2013-02-15 07:57:00,
2013-02-15 03:02:00,33.4,27.3,29.84,NNW,338,0.0,0.0,78,0.00,CLR,CLR,0.00,WeatherDisplay:10.37,2013-02-15 08:02:00,
2013-02-15 03:07:00,33.1,27.0,29.84,NNW,338,0.0,0.0,78,0.00,CLR,CLR,0.00,WeatherDisplay:10.37,2013-02-15 08:07:00,
2013-02-15 03:13:00,33.1,27.0,29.84,NNW,338,0.0,0.0,78,0.00,CLR,CLR,0.00,WeatherDisplay:10.37,2013-02-15 08:13:00,
2013-02-15 03:18:00,32.9,26.8,29.84,NNW,338,0.0,0.0,78,0.00,CLR,CLR,0.00,WeatherDisplay:10.37,2013-02-15 08:18:00,
2013-02-15 03:23:00,32.5,26.4,29.84,NNW,338,0.0,0.0,78,0.00,CLR,CLR,0.00,WeatherDisplay:10.37,2013-02-15 08:23:00,
2013-02-15 03:28:00,32.5,26.4,29.84,NNW,338,0.0,0.0,78,0.00,CLR,CLR,0.00,WeatherDisplay:10.37,2013-02-15 08:28:00,
2013-02-15 03:33:00,32.2,26.1,29.84,NNW,338,0.0,0.0,78,0.00,CLR,CLR,0.00,WeatherDisplay:10.37,2013-02-15 08:33:00,
2013-02-15 03:38:00,32.0,25.9,29.84,SSW,202,0.0,0.0,78,0.00,CLR,CLR,0.00,WeatherDisplay:10.37,2013-02-15 08:38:00,
2013-02-15 03:43:00,31.6,25.9,29.83,SSW,202,0.0,0.0,79,0.00,CLR,CLR,0.00,WeatherDisplay:10.37,2013-02-15 08:43:00,
2013-02-15 03:48:00,31.1,25.3,29.84,SSW,202,0.0,0.0,79,0.00,CLR,CLR,0.00,WeatherDisplay:10.37,2013-02-15 08:48:00,
2013-02-15 03:53:00,30.9,25.5,29.83,SSW,202,0.0,0.0,80,0.00,CLR,CLR,0.00,WeatherDisplay:10.37,2013-02-15 08:53:00,
2013-02-15 03:58:00,30.7,25.3,29.83,SSW,202,0.0,0.0,80,0.00,CLR,CLR,0.00,WeatherDisplay:10.37,2013-02-15 08:58:00,
2013-02-15 04:03:00,30.7,25.3,29.83,SSW,202,0.0,0.0,80,0.00,CLR,CLR,0.00,WeatherDisplay:10.37,2013-02-15 09:03:00,
2013-02-15 04:08:00,30.7,25.3,29.83,SSW,202,0.0,0.0,80,0.00,CLR,CLR,0.00,WeatherDisplay:10.37,2013-02-15 09:08:00,
2013-02-15 04:13:00,30.4,25.2,29.83,West,270,0.0,0.0,81,0.00,CLR,CLR,0.00,WeatherDisplay:10.37,2013-02-15 09:13:00,
2013-02-15 04:18:00,30.4,25.5,29.83,West,270,0.0,0.0,82,0.00,CLR,CLR,0.00,WeatherDisplay:10.37,2013-02-15 09:18:00,
2013-02-15 04:24:00,30.4,25.5,29.84,West,270,0.0,0.0,82,0.00,CLR,CLR,0.00,WeatherDisplay:10.37,2013-02-15 09:24:00,
2013-02-15 04:29:00,29.8,25.0,29.84,WNW,292,0.0,0.0,82,0.00,CLR,CLR,0.00,WeatherDisplay:10.37,2013-02-15 09:29:00,
2013-02-15 04:34:00,29.5,25.0,29.84,West,270,0.0,0.0,83,0.00,CLR,CLR,0.00,WeatherDisplay:10.37,2013-02-15 09:34:00,
2013-02-15 04:39:00,29.3,24.8,29.84,NNW,338,0.0,0.0,83,0.00,CLR,CLR,0.00,WeatherDisplay:10.37,2013-02-15 09:39:00,
2013-02-15 04:44:00,28.9,24.4,29.84,NW,315,0.0,0.0,83,0.00,CLR,CLR,0.00,WeatherDisplay:10.37,2013-02-15 09:44:00,
2013-02-15 04:49:00,28.8,24.5,29.84,NNW,338,2.6,2.6,84,0.00,CLR,CLR,0.00,WeatherDisplay:10.37,2013-02-15 09:49:00,
2013-02-15 04:54:00,28.6,24.4,29.84,NW,315,0.0,0.0,84,0.00,CLR,CLR,0.00,WeatherDisplay:10.37,2013-02-15 09:54:00,
2013-02-15 04:59:00,28.2,24.0,29.84,NNW,338,0.0,0.0,84,0.00,CLR,CLR,0.00,WeatherDisplay:10.37,2013-02-15 09:59:00,
2013-02-15 05:04:00,28.2,24.0,29.84,NNW,338,0.0,0.0,84,0.00,CLR,CLR,0.00,WeatherDisplay:10.37,2013-02-15 10:04:00,
2013-02-15 05:09:00,28.2,24.0,29.84,NNW,338,0.0,0.0,84,0.00,CLR,CLR,0.00,WeatherDisplay:10.37,2013-02-15 10:09:00,
2013-02-15 05:14:00,28.2,24.0,29.84,NNW,338,0.0,0.0,84,0.00,CLR,CLR,0.00,WeatherDisplay:10.37,2013-02-15 10:14:00,
2013-02-15 05:19:00,28.6,24.4,29.84,WNW,292,0.0,0.0,84,0.00,CLR,CLR,0.00,WeatherDisplay:10.37,2013-02-15 10:19:00,
2013-02-15 05:24:00,28.8,24.5,29.84,West,270,0.0,0.0,84,0.00,CLR,CLR,0.00,WeatherDisplay:10.37,2013-02-15 10:24:00,
2013-02-15 05:29:00,28.8,24.5,29.84,WNW,292,0.0,0.0,84,0.00,CLR,CLR,0.00,WeatherDisplay:10.37,2013-02-15 10:29:00,
2013-02-15 05:34:00,28.8,24.5,29.84,WNW,292,0.0,0.0,84,0.00,CLR,CLR,0.00,WeatherDisplay:10.37,2013-02-15 10:34:00,
2013-02-15 05:40:00,28.4,24.2,29.84,WNW,292,0.0,0.0,84,0.00,CLR,CLR,0.00,WeatherDisplay:10.37,2013-02-15 10:40:00,
2013-02-15 05:45:00,28.2,24.0,29.84,West,270,0.0,0.0,84,0.00,CLR,CLR,0.00,WeatherDisplay:10.37,2013-02-15 10:45:00,
2013-02-15 05:50:00,28.2,24.0,29.84,West,270,0.0,0.0,84,0.00,CLR,CLR,0.00,WeatherDisplay:10.37,2013-02-15 10:50:00,
2013-02-15 05:55:00,28.2,24.0,29.84,West,270,0.0,0.0,84,0.00,CLR,CLR,0.00,WeatherDisplay:10.37,2013-02-15 10:55:00,
2013-02-15 06:00:00,28.2,24.0,29.84,West,270,0.0,0.0,84,0.00,CLR,CLR,0.00,WeatherDisplay:10.37,2013-02-15 11:00:00,
2013-02-15 06:05:00,28.2,24.0,29.84,West,270,0.0,0.0,84,0.00,CLR,CLR,0.00,WeatherDisplay:10.37,2013-02-15 11:05:00,
2013-02-15 06:10:00,27.9,23.7,29.84,West,270,0.0,0.0,84,0.00,CLR,CLR,0.00,WeatherDisplay:10.37,2013-02-15 11:10:00,
2013-02-15 06:15:00,27.9,23.7,29.85,West,270,0.0,0.0,84,0.00,CLR,CLR,0.00,WeatherDisplay:10.37,2013-02-15 11:15:00,
2013-02-15 06:20:00,27.5,23.3,29.85,WNW,292,0.0,0.0,84,0.00,CLR,CLR,0.00,WeatherDisplay:10.37,2013-02-15 11:20:00,
2013-02-15 06:25:00,27.3,23.4,29.85,ENE,68,0.0,0.0,85,0.00,CLR,CLR,0.00,WeatherDisplay:10.37,2013-02-15 11:25:00,
2013-02-15 06:30:00,27.3,23.4,29.85,ENE,68,0.0,0.0,85,0.00,CLR,CLR,0.00,WeatherDisplay:10.37,2013-02-15 11:30:00,
2013-02-15 06:35:00,27.3,23.4,29.85,ENE,68,0.0,0.0,85,0.00,CLR,CLR,0.00,WeatherDisplay:10.37,2013-02-15 11:35:00,
2013-02-15 06:40:00,27.1,23.2,29.85,ENE,68,0.0,0.0,85,0.00,CLR,CLR,0.00,WeatherDisplay:10.37,2013-02-15 11:40:00,
2013-02-15 06:45:00,27.1,23.5,29.85,ENE,68,0.0,0.0,86,0.00,CLR,CLR,0.00,WeatherDisplay:10.37,2013-02-15 11:45:00,
2013-02-15 06:50:00,27.3,23.7,29.86,ENE,68,0.0,0.0,86,0.00,CLR,CLR,0.00,WeatherDisplay:10.37,2013-02-15 11:50:00,
2013-02-15 06:55:00,27.3,23.7,29.86,ENE,68,0.0,0.0,86,0.00,CLR,CLR,0.00,WeatherDisplay:10.37,2013-02-15 11:55:00,
2013-02-15 07:00:00,27.3,23.7,29.86,ENE,68,0.0,0.0,86,0.00,CLR,CLR,0.00,WeatherDisplay:10.37,2013-02-15 12:00:00,
2013-02-15 07:05:00,27.3,23.7,29.86,ENE,68,0.0,0.0,86,0.00,CLR,CLR,0.00,WeatherDisplay:10.37,2013-02-15 12:05:00,
2013-02-15 07:10:00,27.5,23.9,29.86,ENE,68,0.0,0.0,86,0.00,CLR,CLR,0.00,WeatherDisplay:10.37,2013-02-15 12:10:00,
2013-02-15 07:15:00,27.3,23.7,29.86,SSE,158,0.0,0.0,86,0.00,CLR,CLR,0.00,WeatherDisplay:10.37,2013-02-15 12:15:00,
2013-02-15 07:21:00,27.3,23.7,29.86,South,180,0.0,0.0,86,0.00,CLR,CLR,0.00,WeatherDisplay:10.37,2013-02-15 12:21:00,
2013-02-15 07:26:00,27.1,23.5,29.87,SW,225,0.0,0.0,86,0.00,CLR,CLR,0.00,WeatherDisplay:10.37,2013-02-15 12:26:00,
2013-02-15 07:31:00,27.1,23.5,29.86,WSW,248,0.0,0.0,86,0.00,CLR,CLR,0.00,WeatherDisplay:10.37,2013-02-15 12:31:00,
2013-02-15 07:36:00,27.0,23.3,29.87,WSW,248,0.0,0.0,86,0.00,CLR,CLR,0.00,WeatherDisplay:10.37,2013-02-15 12:36:00,
2013-02-15 07:41:00,27.1,23.5,29.87,WSW,248,0.0,0.0,86,0.00,CLR,CLR,0.00,WeatherDisplay:10.37,2013-02-15 12:41:00,
2013-02-15 07:46:00,27.3,23.7,29.87,SW,225,0.0,0.0,86,0.00,CLR,CLR,0.00,WeatherDisplay:10.37,2013-02-15 12:46:00,
2013-02-15 07:51:00,27.5,24.1,29.87,SW,225,0.0,0.0,87,0.00,CLR,CLR,0.00,WeatherDisplay:10.37,2013-02-15 12:51:00,
2013-02-15 07:56:00,28.0,24.7,29.87,SW,225,0.0,0.0,87,0.00,CLR,CLR,0.00,WeatherDisplay:10.37,2013-02-15 12:56:00,
2013-02-15 08:02:00,28.2,24.8,29.88,SW,225,0.0,0.0,87,0.00,CLR,CLR,0.00,WeatherDisplay:10.37,2013-02-15 13:02:00,
2013-02-15 08:07:00,28.2,24.6,29.88,WSW,248,0.0,0.0,86,0.00,CLR,CLR,0.00,WeatherDisplay:10.37,2013-02-15 13:07:00,
2013-02-15 08:12:00,28.4,24.7,29.87,WSW,248,0.0,0.0,86,0.00,CLR,CLR,0.00,WeatherDisplay:10.37,2013-02-15 13:12:00,
2013-02-15 08:17:00,28.6,24.9,29.88,WSW,248,0.0,0.0,86,0.00,CLR,CLR,0.00,WeatherDisplay:10.37,2013-02-15 13:17:00,
2013-02-15 08:22:00,28.9,25.3,29.88,West,270,0.0,0.0,86,0.00,CLR,CLR,0.00,WeatherDisplay:10.37,2013-02-15 13:22:00,
2013-02-15 08:27:00,29.1,25.5,29.88,SW,225,0.0,0.0,86,0.00,CLR,CLR,0.00,WeatherDisplay:10.37,2013-02-15 13:27:00,
2013-02-15 08:32:00,29.5,25.8,29.88,SW,225,0.0,0.0,86,0.00,CLR,CLR,0.00,WeatherDisplay:10.37,2013-02-15 13:32:00,
2013-02-15 08:37:00,29.8,26.2,29.88,SW,225,0.0,0.0,86,0.00,CLR,CLR,0.00,WeatherDisplay:10.37,2013-02-15 13:37:00,
2013-02-15 08:42:00,30.0,26.3,29.89,SW,225,0.0,0.0,86,0.00,CLR,CLR,0.00,WeatherDisplay:10.37,2013-02-15 13:42:00,
2013-02-15 08:47:00,30.4,26.7,29.89,SW,225,0.0,0.0,86,0.00,CLR,CLR,0.00,WeatherDisplay:10.37,2013-02-15 13:47:00,
2013-02-15 08:53:00,30.9,27.2,29.89,SW,225,0.0,0.0,86,0.00,CLR,CLR,0.00,WeatherDisplay:10.37,2013-02-15 13:53:00,
2013-02-15 08:58:00,31.1,27.4,29.88,SW,225,0.0,0.0,86,0.00,CLR,CLR,0.00,WeatherDisplay:10.37,2013-02-15 13:58:00,
2013-02-15 09:03:00,31.6,27.9,29.88,SW,225,0.0,0.0,86,0.00,CLR,CLR,0.00,WeatherDisplay:10.37,2013-02-15 14:03:00,
2013-02-15 09:08:00,31.8,27.8,29.88,SW,225,0.0,0.0,85,0.00,CLR,CLR,0.00,WeatherDisplay:10.37,2013-02-15 14:08:00,
2013-02-15 09:13:00,32.4,28.4,29.88,SW,225,0.0,0.0,85,0.00,CLR,CLR,0.00,WeatherDisplay:10.37,2013-02-15 14:13:00,
2013-02-15 09:18:00,32.9,28.9,29.89,SW,225,0.0,0.0,85,0.00,CLR,CLR,0.00,WeatherDisplay:10.37,2013-02-15 14:18:00,
2013-02-15 09:23:00,33.3,29.2,29.88,SW,225,0.0,0.0,85,0.00,CLR,CLR,0.00,WeatherDisplay:10.37,2013-02-15 14:23:00,
2013-02-15 09:28:00,33.6,29.6,29.88,SW,225,0.0,0.0,85,0.00,CLR,CLR,0.00,WeatherDisplay:10.37,2013-02-15 14:28:00,
2013-02-15 09:33:00,34.5,30.5,29.88,SW,225,0.0,0.0,85,0.00,CLR,CLR,0.00,WeatherDisplay:10.37,2013-02-15 14:33:00,
2013-02-15 09:38:00,34.9,30.5,29.88,SW,225,0.0,0.0,84,0.00,CLR,CLR,0.00,WeatherDisplay:10.37,2013-02-15 14:38:00,
2013-02-15 09:43:00,35.2,30.9,29.88,SSW,202,0.0,0.0,84,0.00,CLR,CLR,0.00,WeatherDisplay:10.37,2013-02-15 14:43:00,
2013-02-15 09:48:00,36.1,31.8,29.88,SW,225,0.0,0.0,84,0.00,CLR,CLR,0.00,WeatherDisplay:10.37,2013-02-15 14:48:00,
2013-02-15 09:53:00,36.7,32.3,29.88,South,180,0.0,0.0,84,0.00,CLR,CLR,0.00,WeatherDisplay:10.37,2013-02-15 14:53:00,
2013-02-15 09:59:00,37.2,32.5,29.88,SSW,202,0.0,0.0,83,0.00,CLR,CLR,0.00,WeatherDisplay:10.37,2013-02-15 14:59:00,
2013-02-15 10:04:00,37.9,32.9,29.88,WSW,248,0.0,0.0,82,0.00,CLR,CLR,0.00,WeatherDisplay:10.37,2013-02-15 15:04:00,
2013-02-15 10:09:00,38.5,33.5,29.87,North,0,0.0,0.0,82,0.00,CLR,CLR,0.00,WeatherDisplay:10.37,2013-02-15 15:09:00,
2013-02-15 10:14:00,39.4,34.0,29.87,SW,225,0.0,0.0,81,0.00,CLR,CLR,0.00,WeatherDisplay:10.37,2013-02-15 15:14:00,
2013-02-15 10:19:00,40.1,34.4,29.87,WSW,248,0.0,0.0,80,0.00,CLR,CLR,0.00,WeatherDisplay:10.37,2013-02-15 15:19:00,
2013-02-15 10:24:00,40.6,34.6,29.87,WSW,248,0.0,0.0,79,0.00,CLR,CLR,0.00,WeatherDisplay:10.37,2013-02-15 15:24:00,
2013-02-15 10:29:00,41.7,35.4,29.87,SSE,158,0.0,0.0,78,0.00,CLR,CLR,0.00,WeatherDisplay:10.37,2013-02-15 15:29:00,
2013-02-15 10:35:00,42.4,35.4,29.87,WSW,248,0.0,0.0,76,0.00,CLR,CLR,0.00,WeatherDisplay:10.37,2013-02-15 15:35:00,
2013-02-15 10:40:00,43.2,35.8,29.86,NW,315,0.0,0.0,75,0.00,CLR,CLR,0.00,WeatherDisplay:10.37,2013-02-15 15:40:00,
2013-02-15 10:45:00,43.9,36.1,29.86,WSW,248,0.0,0.0,74,0.00,CLR,CLR,0.00,WeatherDisplay:10.37,2013-02-15 15:45:00,
2013-02-15 10:50:00,44.4,36.3,29.86,WSW,248,0.0,0.0,73,0.00,CLR,CLR,0.00,WeatherDisplay:10.37,2013-02-15 15:50:00,
2013-02-15 10:55:00,45.3,36.1,29.86,SSW,202,0.0,0.0,70,0.00,CLR,CLR,0.00,WeatherDisplay:10.37,2013-02-15 15:55:00,
2013-02-15 11:00:00,45.9,36.3,29.86,SSW,202,0.0,0.0,69,0.00,CLR,CLR,0.00,WeatherDisplay:10.37,2013-02-15 16:00:00,
2013-02-15 11:05:00,46.2,37.0,29.86,South,180,0.0,0.0,70,0.00,CLR,CLR,0.00,WeatherDisplay:10.37,2013-02-15 16:05:00,
2013-02-15 11:11:00,47.5,36.7,29.86,SSW,202,5.2,5.8,66,0.00,CLR,CLR,0.00,WeatherDisplay:10.37,2013-02-15 16:11:00,
2013-02-15 11:16:00,47.8,37.4,29.86,WSW,248,0.0,0.0,67,0.00,CLR,CLR,0.00,WeatherDisplay:10.37,2013-02-15 16:16:00,
2013-02-15 11:21:00,48.4,37.2,29.85,WSW,248,0.0,0.0,65,0.00,CLR,CLR,0.00,WeatherDisplay:10.37,2013-02-15 16:21:00,
2013-02-15 11:26:00,48.7,37.1,29.85,WSW,248,0.0,0.0,64,0.00,CLR,CLR,0.00,WeatherDisplay:10.37,2013-02-15 16:26:00,
2013-02-15 11:31:00,49.3,36.8,29.85,SW,225,0.0,0.0,62,0.00,CLR,CLR,0.00,WeatherDisplay:10.37,2013-02-15 16:31:00,
2013-02-15 11:37:00,49.6,36.3,29.85,SW,225,4.9,4.9,60,0.00,CLR,CLR,0.00,WeatherDisplay:10.37,2013-02-15 16:37:00,
2013-02-15 11:42:00,50.2,36.8,29.84,SW,225,2.0,2.3,60,0.00,CLR,CLR,0.00,WeatherDisplay:10.37,2013-02-15 16:42:00,
2013-02-15 11:47:00,50.5,35.4,29.84,SW,225,4.4,4.6,56,0.00,CLR,CLR,0.00,WeatherDisplay:10.37,2013-02-15 16:47:00,
2013-02-15 11:52:00,51.1,35.9,29.83,SW,225,4.4,4.6,56,0.00,CLR,CLR,0.00,WeatherDisplay:10.37,2013-02-15 16:52:00,
2013-02-15 11:57:00,51.4,36.7,29.83,SW,225,3.8,3.8,57,0.00,CLR,CLR,0.00,WeatherDisplay:10.37,2013-02-15 16:57:00,
2013-02-15 12:02:00,51.6,36.4,29.83,WNW,292,0.0,0.0,56,0.00,CLR,CLR,0.00,WeatherDisplay:10.37,2013-02-15 17:02:00,
2013-02-15 12:07:00,52.0,35.8,29.83,WSW,248,2.4,2.4,54,0.00,CLR,CLR,0.00,WeatherDisplay:10.37,2013-02-15 17:07:00,
2013-02-15 12:12:00,52.5,35.9,29.83,SE,135,0.0,0.0,53,0.00,CLR,CLR,0.00,WeatherDisplay:10.37,2013-02-15 17:12:00,
2013-02-15 12:17:00,53.1,36.4,29.82,SW,225,4.0,4.0,53,0.00,CLR,CLR,0.00,WeatherDisplay:10.37,2013-02-15 17:17:00,
2013-02-15 12:22:00,53.8,36.1,29.82,South,180,0.0,0.0,51,0.00,CLR,CLR,0.00,WeatherDisplay:10.37,2013-02-15 17:22:00,
2013-02-15 12:27:00,53.2,34.0,29.82,WSW,248,6.5,6.5,48,0.00,CLR,CLR,0.00,WeatherDisplay:10.37,2013-02-15 17:27:00,
2013-02-15 12:32:00,54.0,35.2,29.82,WSW,248,5.2,5.8,49,0.00,CLR,CLR,0.00,WeatherDisplay:10.37,2013-02-15 17:32:00,
2013-02-15 12:37:00,54.5,34.7,29.81,WSW,248,7.2,7.2,47,0.00,CLR,CLR,0.00,WeatherDisplay:10.37,2013-02-15 17:37:00,
2013-02-15 12:43:00,54.7,34.3,29.81,WSW,248,5.8,5.8,46,0.00,CLR,CLR,0.00,WeatherDisplay:10.37,2013-02-15 17:43:00,
2013-02-15 12:48:00,55.0,32.9,29.81,WSW,248,11.1,11.5,43,0.00,CLR,CLR,0.00,WeatherDisplay:10.37,2013-02-15 17:48:00,
2013-02-15 12:53:00,55.2,34.2,29.80,SW,225,8.6,8.6,45,0.00,CLR,CLR,0.00,WeatherDisplay:10.37,2013-02-15 17:53:00,
2013-02-15 12:58:00,54.7,34.3,29.80,WSW,248,2.9,3.5,46,0.00,CLR,CLR,0.00,WeatherDisplay:10.37,2013-02-15 17:58:00,
2013-02-15 13:03:00,55.2,33.7,29.80,South,180,0.4,0.0,44,0.00,CLR,CLR,0.00,WeatherDisplay:10.37,2013-02-15 18:03:00,
2013-02-15 13:08:00,55.9,33.7,29.79,SSW,202,2.9,3.5,43,0.00,CLR,CLR,0.00,WeatherDisplay:10.37,2013-02-15 18:08:00,
2013-02-15 13:13:00,55.9,33.7,29.79,SW,225,11.8,11.8,43,0.00,CLR,CLR,0.00,WeatherDisplay:10.37,2013-02-15 18:13:00,
2013-02-15 13:18:00,55.2,33.7,29.79,WSW,248,6.5,6.9,44,0.00,CLR,CLR,0.00,WeatherDisplay:10.37,2013-02-15 18:18:00,
2013-02-15 13:23:00,56.1,34.5,29.78,WSW,248,8.1,8.1,44,0.00,CLR,CLR,0.00,WeatherDisplay:10.37,2013-02-15 18:23:00,
2013-02-15 13:28:00,55.8,34.2,29.78,West,270,2.9,3.5,44,0.00,CLR,CLR,0.00,WeatherDisplay:10.37,2013-02-15 18:28:00,
2013-02-15 13:34:00,56.8,34.0,29.78,WSW,248,8.6,8.6,42,0.00,CLR,CLR,0.00,WeatherDisplay:10.37,2013-02-15 18:34:00,
2013-02-15 13:39:00,56.8,35.1,29.77,WSW,248,5.8,5.8,44,0.00,CLR,CLR,0.00,WeatherDisplay:10.37,2013-02-15 18:39:00,
2013-02-15 13:44:00,56.8,34.0,29.77,WSW,248,8.8,10.4,42,0.00,CLR,CLR,0.00,WeatherDisplay:10.37,2013-02-15 18:44:00,
2013-02-15 13:49:00,56.1,33.9,29.77,SSW,202,0.6,5.8,43,0.00,CLR,CLR,0.00,WeatherDisplay:10.37,2013-02-15 18:49:00,
2013-02-15 13:54:00,56.3,33.5,29.77,WSW,248,8.1,8.1,42,0.00,CLR,CLR,0.00,WeatherDisplay:10.37,2013-02-15 18:54:00,
2013-02-15 13:59:00,55.9,33.2,29.77,WSW,248,7.4,7.4,42,0.00,CLR,CLR,0.00,WeatherDisplay:10.37,2013-02-15 18:59:00,
2013-02-15 14:05:00,56.3,34.1,29.77,WSW,248,3.5,3.5,43,0.00,CLR,CLR,0.00,WeatherDisplay:10.37,2013-02-15 19:05:00,
2013-02-15 14:10:00,57.9,34.9,29.77,West,270,5.2,5.8,42,0.00,CLR,CLR,0.00,WeatherDisplay:10.37,2013-02-15 19:10:00,
2013-02-15 14:15:00,59.0,34.7,29.77,West,270,7.0,7.0,40,0.00,CLR,CLR,0.00,WeatherDisplay:10.37,2013-02-15 19:15:00,
2013-02-15 14:20:00,58.6,34.4,29.76,WSW,248,0.2,4.6,40,0.00,CLR,CLR,0.00,WeatherDisplay:10.37,2013-02-15 19:20:00,
2013-02-15 14:25:00,59.0,34.1,29.76,WSW,248,8.3,8.3,39,0.00,CLR,CLR,0.00,WeatherDisplay:10.37,2013-02-15 19:25:00,
2013-02-15 14:30:00,57.7,32.9,29.76,SSW,202,9.7,9.7,39,0.00,CLR,CLR,0.00,WeatherDisplay:10.37,2013-02-15 19:30:00,
2013-02-15 14:36:00,56.8,33.4,29.75,WSW,248,7.0,7.0,41,0.00,CLR,CLR,0.00,WeatherDisplay:10.37,2013-02-15 19:36:00,
2013-02-15 14:41:00,57.0,32.3,29.75,SE,135,0.0,0.0,39,0.00,CLR,CLR,0.00,WeatherDisplay:10.37,2013-02-15 19:41:00,
2013-02-15 14:46:00,56.8,33.4,29.75,West,270,2.9,3.5,41,0.00,CLR,CLR,0.00,WeatherDisplay:10.37,2013-02-15 19:46:00,
2013-02-15 14:51:00,57.2,33.7,29.74,SW,225,7.0,7.0,41,0.00,CLR,CLR,0.00,WeatherDisplay:10.37,2013-02-15 19:51:00,
2013-02-15 14:56:00,57.2,33.1,29.74,South,180,4.9,4.9,40,0.00,CLR,CLR,0.00,WeatherDisplay:10.37,2013-02-15 19:56:00,
2013-02-15 15:01:00,56.8,32.8,29.74,SW,225,5.3,5.8,40,0.00,CLR,CLR,0.00,WeatherDisplay:10.37,2013-02-15 20:01:00,
2013-02-15 15:06:00,57.0,33.5,29.74,SW,225,2.6,2.6,41,0.00,CLR,CLR,0.00,WeatherDisplay:10.37,2013-02-15 20:06:00,
2013-02-15 15:11:00,56.8,33.4,29.74,WSW,248,7.9,8.1,41,0.00,CLR,CLR,0.00,WeatherDisplay:10.37,2013-02-15 20:11:00,
2013-02-15 15:16:00,56.8,33.4,29.73,WSW,248,7.2,7.2,41,0.00,CLR,CLR,0.00,WeatherDisplay:10.37,2013-02-15 20:16:00,
2013-02-15 15:21:00,56.8,33.4,29.73,WSW,248,2.6,3.5,41,0.00,CLR,CLR,0.00,WeatherDisplay:10.37,2013-02-15 20:21:00,
2013-02-15 15:26:00,56.5,33.0,29.73,WSW,248,4.6,5.8,41,0.00,CLR,CLR,0.00,WeatherDisplay:10.37,2013-02-15 20:26:00,
2013-02-15 15:31:00,56.8,33.4,29.72,West,270,2.9,3.5,41,0.00,CLR,CLR,0.00,WeatherDisplay:10.37,2013-02-15 20:31:00,
2013-02-15 15:36:00,57.6,34.0,29.72,SW,225,7.4,7.4,41,0.00,CLR,CLR,0.00,WeatherDisplay:10.37,2013-02-15 20:36:00,
2013-02-15 15:41:00,56.8,32.1,29.72,SW,225,4.9,5.8,39,0.00,CLR,CLR,0.00,WeatherDisplay:10.37,2013-02-15 20:41:00,
2013-02-15 15:46:00,56.8,32.8,29.72,SSW,202,4.0,4.0,40,0.00,CLR,CLR,0.00,WeatherDisplay:10.37,2013-02-15 20:46:00,
2013-02-15 15:52:00,57.0,33.5,29.72,WSW,248,5.5,5.8,41,0.00,CLR,CLR,0.00,WeatherDisplay:10.37,2013-02-15 20:52:00,
2013-02-15 15:57:00,56.8,33.4,29.72,WNW,292,3.8,3.8,41,0.00,CLR,CLR,0.00,WeatherDisplay:10.37,2013-02-15 20:57:00,
2013-02-15 16:02:00,56.5,32.4,29.72,WSW,248,5.5,5.8,40,0.00,CLR,CLR,0.00,WeatherDisplay:10.37,2013-02-15 21:02:00,
2013-02-15 16:07:00,56.3,32.9,29.73,WSW,248,4.0,4.0,41,0.00,CLR,CLR,0.00,WeatherDisplay:10.37,2013-02-15 21:07:00,
2013-02-15 16:12:00,56.1,32.7,29.72,WSW,248,0.6,1.2,41,0.00,CLR,CLR,0.00,WeatherDisplay:10.37,2013-02-15 21:12:00,
2013-02-15 16:17:00,56.1,33.3,29.72,West,270,0.0,0.0,42,0.00,CLR,CLR,0.00,WeatherDisplay:10.37,2013-02-15 21:17:00,
2013-02-15 16:22:00,55.9,33.2,29.72,WSW,248,0.0,0.0,42,0.00,CLR,CLR,0.00,WeatherDisplay:10.37,2013-02-15 21:22:00,
2013-02-15 16:27:00,55.8,33.6,29.73,SW,225,0.0,0.0,43,0.00,CLR,CLR,0.00,WeatherDisplay:10.37,2013-02-15 21:27:00,
2013-02-15 16:32:00,55.2,33.1,29.72,SW,225,0.0,0.0,43,0.00,CLR,CLR,0.00,WeatherDisplay:10.37,2013-02-15 21:32:00,
2013-02-15 16:37:00,55.2,33.1,29.72,WSW,248,0.0,0.0,43,0.00,CLR,CLR,0.00,WeatherDisplay:10.37,2013-02-15 21:37:00,
2013-02-15 16:43:00,55.0,32.9,29.72,WSW,248,0.0,0.0,43,0.00,CLR,CLR,0.00,WeatherDisplay:10.37,2013-02-15 21:43:00,
2013-02-15 16:48:00,55.0,32.9,29.73,NNW,338,0.0,0.0,43,0.00,CLR,CLR,0.00,WeatherDisplay:10.37,2013-02-15 21:48:00,
2013-02-15 16:53:00,55.0,32.9,29.73,WNW,292,0.8,1.2,43,0.00,CLR,CLR,0.00,WeatherDisplay:10.37,2013-02-15 21:53:00,
2013-02-15 16:58:00,55.2,33.1,29.72,North,0,0.0,0.0,43,0.00,CLR,CLR,0.00,WeatherDisplay:10.37,2013-02-15 21:58:00,
2013-02-15 17:03:00,55.2,32.5,29.73,NW,315,5.2,5.8,42,0.00,CLR,CLR,0.00,WeatherDisplay:10.37,2013-02-15 22:03:00,
2013-02-15 17:08:00,55.0,32.9,29.73,North,0,4.0,8.1,43,0.00,CLR,CLR,0.00,WeatherDisplay:10.37,2013-02-15 22:08:00,
2013-02-15 17:13:00,55.0,32.9,29.73,North,0,4.6,5.8,43,0.00,CLR,CLR,0.00,WeatherDisplay:10.37,2013-02-15 22:13:00,
2013-02-15 17:18:00,54.5,33.0,29.73,NNE,22,4.6,4.6,44,0.00,CLR,CLR,0.00,WeatherDisplay:10.37,2013-02-15 22:18:00,
2013-02-15 17:23:00,54.3,32.8,29.73,NNE,22,4.9,4.9,44,0.00,CLR,CLR,0.00,WeatherDisplay:10.37,2013-02-15 22:23:00,
2013-02-15 17:28:00,54.1,32.7,29.73,NNE,22,4.6,4.6,44,0.00,CLR,CLR,0.00,WeatherDisplay:10.37,2013-02-15 22:28:00,
2013-02-15 17:33:00,54.0,33.6,29.73,NNW,338,0.0,0.0,46,0.00,CLR,CLR,0.00,WeatherDisplay:10.37,2013-02-15 22:33:00,
2013-02-15 17:38:00,53.8,33.5,29.73,WNW,292,0.0,0.0,46,0.00,CLR,CLR,0.00,WeatherDisplay:10.37,2013-02-15 22:38:00,
2013-02-15 17:44:00,53.4,33.1,29.73,North,0,0.0,0.0,46,0.00,CLR,CLR,0.00,WeatherDisplay:10.37,2013-02-15 22:44:00,
2013-02-15 17:49:00,53.1,33.3,29.73,NNW,338,0.0,0.0,47,0.00,CLR,CLR,0.00,WeatherDisplay:10.37,2013-02-15 22:49:00,
2013-02-15 17:54:00,52.9,33.2,29.74,WNW,292,0.0,0.0,47,0.00,CLR,CLR,0.00,WeatherDisplay:10.37,2013-02-15 22:54:00,
2013-02-15 17:59:00,52.7,33.5,29.74,NNW,338,0.0,0.0,48,0.00,CLR,CLR,0.00,WeatherDisplay:10.37,2013-02-15 22:59:00,
2013-02-15 18:04:00,52.5,33.4,29.74,NW,315,5.5,5.8,48,0.00,CLR,CLR,0.00,WeatherDisplay:10.37,2013-02-15 23:04:00,
2013-02-15 18:09:00,52.2,34.1,29.74,NW,315,5.5,5.8,50,0.00,CLR,CLR,0.00,WeatherDisplay:10.37,2013-02-15 23:09:00,
2013-02-15 18:14:00,52.0,34.4,29.75,West,270,4.0,4.0,51,0.00,CLR,CLR,0.00,WeatherDisplay:10.37,2013-02-15 23:14:00,
2013-02-15 18:19:00,51.4,35.3,29.75,North,0,8.6,8.6,54,0.00,CLR,CLR,0.00,WeatherDisplay:10.37,2013-02-15 23:19:00,
2013-02-15 18:24:00,51.1,35.0,29.75,NNE,22,4.0,4.0,54,0.00,CLR,CLR,0.00,WeatherDisplay:10.37,2013-02-15 23:24:00,
2013-02-15 18:29:00,50.9,35.3,29.75,North,0,3.8,3.8,55,0.00,CLR,CLR,0.00,WeatherDisplay:10.37,2013-02-15 23:29:00,
2013-02-15 18:35:00,50.9,35.3,29.75,North,0,3.5,3.5,55,0.00,CLR,CLR,0.00,WeatherDisplay:10.37,2013-02-15 23:35:00,
2013-02-15 18:40:00,50.7,35.1,29.75,NNW,338,3.8,3.8,55,0.00,CLR,CLR,0.00,WeatherDisplay:10.37,2013-02-15 23:40:00,
2013-02-15 18:45:00,50.7,35.1,29.75,North,0,0.0,0.0,55,0.00,CLR,CLR,0.00,WeatherDisplay:10.37,2013-02-15 23:45:00,
2013-02-15 18:50:00,50.5,35.0,29.75,NW,315,1.3,1.3,55,0.00,CLR,CLR,0.00,WeatherDisplay:10.37,2013-02-15 23:50:00,
2013-02-15 18:56:00,50.5,35.4,29.76,West,270,4.4,4.6,56,0.00,CLR,CLR,0.00,WeatherDisplay:10.37,2013-02-15 23:56:00,
2013-02-15 19:01:00,50.2,35.1,29.75,NNW,338,3.8,3.8,56,0.00,CLR,CLR,0.00,WeatherDisplay:10.37,2013-02-16 00:01:00,
2013-02-15 19:06:00,50.2,35.1,29.75,North,0,3.8,3.8,56,0.00,CLR,CLR,0.00,WeatherDisplay:10.37,2013-02-16 00:06:00,
2013-02-15 19:11:00,50.2,35.1,29.76,WSW,248,3.3,5.8,56,0.00,CLR,CLR,0.00,WeatherDisplay:10.37,2013-02-16 00:11:00,
2013-02-15 19:16:00,50.2,35.5,29.76,WNW,292,9.0,9.2,57,0.00,CLR,CLR,0.00,WeatherDisplay:10.37,2013-02-16 00:16:00,
2013-02-15 19:21:00,50.2,36.4,29.77,West,270,2.4,2.4,59,0.00,CLR,CLR,0.00,WeatherDisplay:10.37,2013-02-16 00:21:00,
2013-02-15 19:26:00,49.3,37.6,29.77,NNW,338,3.8,3.8,64,0.00,CLR,CLR,0.00,WeatherDisplay:10.37,2013-02-16 00:26:00,
2013-02-15 19:31:00,48.4,37.5,29.77,NW,315,6.8,9.2,66,0.00,CLR,CLR,0.00,WeatherDisplay:10.37,2013-02-16 00:31:00,
2013-02-15 19:36:00,46.9,38.4,29.77,North,0,5.8,5.8,72,0.00,CLR,CLR,0.00,WeatherDisplay:10.37,2013-02-16 00:36:00,
2013-02-15 19:41:00,45.9,37.7,29.77,North,0,7.4,7.4,73,0.00,CLR,CLR,0.00,WeatherDisplay:10.37,2013-02-16 00:41:00,
2013-02-15 19:46:00,45.3,37.5,29.77,NNE,22,5.5,5.8,74,0.00,CLR,CLR,0.00,WeatherDisplay:10.37,2013-02-16 00:46:00,
2013-02-15 19:52:00,45.0,36.8,29.77,NNE,22,7.7,8.1,73,0.00,CLR,CLR,0.00,WeatherDisplay:10.37,2013-02-16 00:52:00,
2013-02-15 19:57:00,44.8,37.3,29.78,North,0,6.1,6.1,75,0.00,CLR,CLR,0.00,WeatherDisplay:10.37,2013-02-16 00:57:00,
2013-02-15 20:02:00,44.4,36.6,29.78,North,0,5.8,5.8,74,0.00,CLR,CLR,0.00,WeatherDisplay:10.37,2013-02-16 01:02:00,
2013-02-15 20:07:00,44.4,36.3,29.78,NNE,22,5.5,6.9,73,0.00,CLR,CLR,0.00,WeatherDisplay:10.37,2013-02-16 01:07:00,
2013-02-15 20:12:00,44.8,36.7,29.78,NW,315,5.3,5.8,73,0.00,CLR,CLR,0.00,WeatherDisplay:10.37,2013-02-16 01:12:00,
2013-02-15 20:17:00,44.8,36.7,29.78,NNE,22,5.3,5.8,73,0.00,CLR,CLR,0.00,WeatherDisplay:10.37,2013-02-16 01:17:00,
2013-02-15 20:22:00,44.6,36.5,29.78,North,0,4.9,4.9,73,0.00,CLR,CLR,0.00,WeatherDisplay:10.37,2013-02-16 01:22:00,
2013-02-15 20:27:00,44.4,36.3,29.79,NNE,22,3.5,3.5,73,0.00,CLR,CLR,0.00,WeatherDisplay:10.37,2013-02-16 01:27:00,
2013-02-15 20:32:00,43.9,36.1,29.78,NNE,22,4.2,4.6,74,0.00,CLR,CLR,0.00,WeatherDisplay:10.37,2013-02-16 01:32:00,
2013-02-15 20:38:00,43.5,35.4,29.78,NE,45,8.3,8.3,73,0.00,CLR,CLR,0.00,WeatherDisplay:10.37,2013-02-16 01:38:00,
2013-02-15 20:43:00,43.2,35.1,29.79,NE,45,4.2,4.6,73,0.00,CLR,CLR,0.00,WeatherDisplay:10.37,2013-02-16 01:43:00,
2013-02-15 20:48:00,42.6,35.2,29.79,NNE,22,5.5,5.8,75,0.00,CLR,CLR,0.00,WeatherDisplay:10.37,2013-02-16 01:48:00,
2013-02-15 20:53:00,42.3,35.6,29.79,NE,45,6.5,6.5,77,0.00,CLR,CLR,0.00,WeatherDisplay:10.37,2013-02-16 01:53:00,
2013-02-15 20:58:00,41.7,35.4,29.79,NNE,22,4.0,4.0,78,0.00,CLR,CLR,0.00,WeatherDisplay:10.37,2013-02-16 01:58:00,
2013-02-15 21:03:00,41.5,35.5,29.79,NE,45,4.2,4.6,79,0.00,CLR,CLR,0.00,WeatherDisplay:10.37,2013-02-16 02:03:00,
2013-02-15 21:08:00,41.4,35.3,29.79,NNE,22,1.7,1.7,79,0.00,CLR,CLR,0.00,WeatherDisplay:10.37,2013-02-16 02:08:00,
2013-02-15 21:14:00,41.2,35.5,29.80,NNE,22,0.0,0.0,80,0.00,CLR,CLR,0.00,WeatherDisplay:10.37,2013-02-16 02:14:00,
2013-02-15 21:19:00,41.2,35.5,29.80,NNE,22,0.0,0.0,80,0.00,CLR,CLR,0.00,WeatherDisplay:10.37,2013-02-16 02:19:00,
2013-02-15 21:24:00,41.2,35.2,29.80,NNE,22,0.0,2.3,79,0.00,CLR,CLR,0.00,WeatherDisplay:10.37,2013-02-16 02:24:00,
2013-02-15 21:29:00,41.2,35.2,29.80,NE,45,0.0,0.0,79,0.00,CLR,CLR,0.00,WeatherDisplay:10.37,2013-02-16 02:29:00,
2013-02-15 21:34:00,41.0,35.0,29.80,NE,45,0.0,0.0,79,0.00,CLR,CLR,0.00,WeatherDisplay:10.37,2013-02-16 02:34:00,
2013-02-15 21:39:00,40.8,34.5,29.80,NE,45,3.5,3.5,78,0.00,CLR,CLR,0.00,WeatherDisplay:10.37,2013-02-16 02:39:00,
2013-02-15 21:44:00,40.8,34.5,29.79,NE,45,4.2,4.6,78,0.00,CLR,CLR,0.00,WeatherDisplay:10.37,2013-02-16 02:44:00,
2013-02-15 21:49:00,40.8,34.2,29.79,NE,45,3.1,3.5,77,0.00,CLR,CLR,0.00,WeatherDisplay:10.37,2013-02-16 02:49:00,
2013-02-15 21:54:00,40.8,34.2,29.80,NE,45,2.0,2.3,77,0.00,CLR,CLR,0.00,WeatherDisplay:10.37,2013-02-16 02:54:00,
2013-02-15 21:59:00,40.6,34.3,29.79,NE,45,4.0,4.0,78,0.00,CLR,CLR,0.00,WeatherDisplay:10.37,2013-02-16 02:59:00,
2013-02-15 22:05:00,40.6,34.0,29.80,NE,45,0.0,2.3,77,0.00,CLR,CLR,0.00,WeatherDisplay:10.37,2013-02-16 03:05:00,
2013-02-15 22:10:00,40.6,34.0,29.80,NE,45,0.0,0.0,77,0.00,CLR,CLR,0.00,WeatherDisplay:10.37,2013-02-16 03:10:00,
2013-02-15 22:15:00,40.3,33.6,29.80,NE,45,0.0,0.0,77,0.00,CLR,CLR,0.00,WeatherDisplay:10.37,2013-02-16 03:15:00,
2013-02-15 22:20:00,40.3,33.3,29.79,NE,45,0.0,3.5,76,0.00,CLR,CLR,0.00,WeatherDisplay:10.37,2013-02-16 03:20:00,
2013-02-15 22:25:00,40.3,33.0,29.79,NE,45,0.0,0.0,75,0.00,CLR,CLR,0.00,WeatherDisplay:10.37,2013-02-16 03:25:00,
2013-02-15 22:30:00,40.3,33.0,29.79,NE,45,0.0,0.0,75,0.00,CLR,CLR,0.00,WeatherDisplay:10.37,2013-02-16 03:30:00,
2013-02-15 22:35:00,40.3,33.0,29.79,NE,45,2.4,2.4,75,0.00,CLR,CLR,0.00,WeatherDisplay:10.37,2013-02-16 03:35:00,
2013-02-15 22:40:00,40.1,32.5,29.79,NE,45,0.0,0.0,74,0.00,CLR,CLR,0.00,WeatherDisplay:10.37,2013-02-16 03:40:00,
2013-02-15 22:45:00,39.9,32.6,29.79,NE,45,0.0,0.0,75,0.00,CLR,CLR,0.00,WeatherDisplay:10.37,2013-02-16 03:45:00,
2013-02-15 22:50:00,39.9,32.3,29.79,NE,45,0.0,0.0,74,0.00,CLR,CLR,0.00,WeatherDisplay:10.37,2013-02-16 03:50:00,
2013-02-15 22:56:00,39.9,32.3,29.79,NE,45,3.1,3.5,74,0.00,CLR,CLR,0.00,WeatherDisplay:10.37,2013-02-16 03:56:00,
2013-02-15 23:01:00,39.7,31.4,29.79,NE,45,3.1,3.5,72,0.00,CLR,CLR,0.00,WeatherDisplay:10.37,2013-02-16 04:01:00,
2013-02-15 23:06:00,39.7,31.4,29.79,NE,45,0.0,0.0,72,0.00,CLR,CLR,0.00,WeatherDisplay:10.37,2013-02-16 04:06:00,
2013-02-15 23:11:00,39.4,31.1,29.79,NE,45,2.6,2.6,72,0.00,CLR,CLR,0.00,WeatherDisplay:10.37,2013-02-16 04:11:00,
2013-02-15 23:16:00,39.4,31.1,29.78,NNE,22,2.6,2.6,72,0.00,CLR,CLR,0.00,WeatherDisplay:10.37,2013-02-16 04:16:00,
2013-02-15 23:21:00,39.0,30.4,29.79,NE,45,3.8,3.8,71,0.00,CLR,CLR,0.00,WeatherDisplay:10.37,2013-02-16 04:21:00,
2013-02-15 23:26:00,39.0,30.4,29.79,NE,45,2.6,2.6,71,0.00,CLR,CLR,0.00,WeatherDisplay:10.37,2013-02-16 04:26:00,
2013-02-15 23:31:00,39.0,30.4,29.79,NE,45,4.2,4.6,71,0.00,CLR,CLR,0.00,WeatherDisplay:10.37,2013-02-16 04:31:00,
2013-02-15 23:37:00,38.8,30.2,29.79,NE,45,0.0,2.3,71,0.00,CLR,CLR,0.00,WeatherDisplay:10.37,2013-02-16 04:37:00,
2013-02-15 23:42:00,38.5,29.9,29.79,NE,45,4.2,5.8,71,0.00,CLR,CLR,0.00,WeatherDisplay:10.37,2013-02-16 04:42:00,
2013-02-15 23:47:00,38.5,29.9,29.79,NNE,22,0.0,0.0,71,0.00,CLR,CLR,0.00,WeatherDisplay:10.37,2013-02-16 04:47:00,
2013-02-15 23:52:00,38.3,29.7,29.78,NE,45,5.3,5.8,71,0.00,CLR,CLR,0.00,WeatherDisplay:10.37,2013-02-16 04:52:00,
2013-02-15 23:57:00,38.1,29.5,29.79,NE,45,4.0,4.0,71,0.00,CLR,CLR,0.00,WeatherDisplay:10.37,2013-02-16 04:57:00,